4VA3 weather

Flying W Airport
Richmond, Virginia, United States

Public forecast

Using degrees Fahrenheit for public forecast. Weather courtesy of forecast.io.

METAR (pilot weather report)

Closest report is Richmond International Airport, 5.8 nm (10.7 km) NE. Retrieved 2019/03/21 02:54 UTC (13 minutes ago):

KRIC 210254Z 07004KT 8SM -RA SCT006 BKN034 OVC048 07/06 A3019 RMK AO2 SLP228 P0004 60009 T00670056 56008 $

TAF (pilot weather forecast)

Forecast is more than 12 hours old.

Closest forecast is Richmond International Airport, 5.8 nm (10.7 km) NE. Retrieved 2019/03/20 00:36 UTC (1 day ago):

TAF KRIC 202334Z 2100/2124 08006KT 6SM -RA OVC040 FM210200 06005KT 4SM -RA BR OVC015 FM210500 06005KT 3SM -RA BR OVC007 FM211200 10009KT 4SM -RA BR OVC007 FM211800 29005KT 6SM -RA OVC015